sensor_id;sensor_type;location;lat;lon;timestamp;temperature;humidity
23305;DHT22;11821;51.456;8.844;2023-04-22T07:26:40;14.20;99.90
23305;DHT22;11821;51.456;8.844;2023-04-22T07:29:07;18.10;99.90
23305;DHT22;11821;51.456;8.844;2023-04-22T07:31:36;18.20;99.90
23305;DHT22;11821;51.456;8.844;2023-04-22T07:34:03;18.20;99.90
23305;DHT22;11821;51.456;8.844;2023-04-22T07:36:29;18.10;99.90
23305;DHT22;11821;51.456;8.844;2023-04-22T07:38:57;18.30;99.90
23305;DHT22;11821;51.456;8.844;2023-04-22T07:41:24;18.60;99.90
23305;DHT22;11821;51.456;8.844;2023-04-22T07:43:50;18.90;99.90
23305;DHT22;11821;51.456;8.844;2023-04-22T07:46:17;18.60;99.90
23305;DHT22;11821;51.456;8.844;2023-04-22T07:48:43;18.90;99.90
23305;DHT22;11821;51.456;8.844;2023-04-22T07:51:09;19.10;99.90
23305;DHT22;11821;51.456;8.844;2023-04-22T07:53:35;19.10;99.90
23305;DHT22;11821;51.456;8.844;2023-04-22T07:56:02;19.40;99.90
23305;DHT22;11821;51.456;8.844;2023-04-22T07:58:28;19.50;99.90
23305;DHT22;11821;51.456;8.844;2023-04-22T08:00:55;19.70;99.90
23305;DHT22;11821;51.456;8.844;2023-04-22T08:03:22;19.60;99.90
23305;DHT22;11821;51.456;8.844;2023-04-22T08:05:48;19.50;99.90
23305;DHT22;11821;51.456;8.844;2023-04-22T08:08:15;19.60;99.90
23305;DHT22;11821;51.456;8.844;2023-04-22T08:10:41;19.70;99.90
23305;DHT22;11821;51.456;8.844;2023-04-22T08:13:07;19.90;99.90
23305;DHT22;11821;51.456;8.844;2023-04-22T08:15:34;19.80;99.90
23305;DHT22;11821;51.456;8.844;2023-04-22T08:18:00;19.90;99.90
23305;DHT22;11821;51.456;8.844;2023-04-22T08:20:27;20.00;99.90
23305;DHT22;11821;51.456;8.844;2023-04-22T08:22:53;20.10;99.90
23305;DHT22;11821;51.456;8.844;2023-04-22T08:25:23;20.10;99.90
23305;DHT22;11821;51.456;8.844;2023-04-22T08:27:50;20.10;99.90
23305;DHT22;11821;51.456;8.844;2023-04-22T08:30:17;20.10;99.90
23305;DHT22;11821;51.456;8.844;2023-04-22T08:32:43;20.30;99.90
23305;DHT22;11821;51.456;8.844;2023-04-22T08:35:09;20.50;99.90
23305;DHT22;11821;51.456;8.844;2023-04-22T08:37:36;20.40;99.90
23305;DHT22;11821;51.456;8.844;2023-04-22T08:40:02;20.50;99.90
23305;DHT22;11821;51.456;8.844;2023-04-22T08:42:29;20.60;99.90
23305;DHT22;11821;51.456;8.844;2023-04-22T08:44:56;21.00;99.90
23305;DHT22;11821;51.456;8.844;2023-04-22T08:47:24;21.00;99.90
23305;DHT22;11821;51.456;8.844;2023-04-22T08:49:53;21.10;99.90
23305;DHT22;11821;51.456;8.844;2023-04-22T08:52:19;21.10;99.90
23305;DHT22;11821;51.456;8.844;2023-04-22T08:54:46;21.30;99.90
23305;DHT22;11821;51.456;8.844;2023-04-22T08:57:14;21.40;99.90
23305;DHT22;11821;51.456;8.844;2023-04-22T08:59:41;21.70;99.90
23305;DHT22;11821;51.456;8.844;2023-04-22T09:02:15;22.10;99.90
23305;DHT22;11821;51.456;8.844;2023-04-22T09:04:43;22.50;99.90
23305;DHT22;11821;51.456;8.844;2023-04-22T09:07:11;22.70;99.90
23305;DHT22;11821;51.456;8.844;2023-04-22T09:09:44;22.90;99.90
23305;DHT22;11821;51.456;8.844;2023-04-22T09:12:11;23.00;99.90
23305;DHT22;11821;51.456;8.844;2023-04-22T09:14:37;23.00;99.90
23305;DHT22;11821;51.456;8.844;2023-04-22T09:17:04;23.00;99.90
23305;DHT22;11821;51.456;8.844;2023-04-22T09:19:30;23.00;99.90
23305;DHT22;11821;51.456;8.844;2023-04-22T09:21:57;23.10;99.90
23305;DHT22;11821;51.456;8.844;2023-04-22T09:24:24;23.20;99.90
23305;DHT22;11821;51.456;8.844;2023-04-22T09:26:50;23.20;99.90
23305;DHT22;11821;51.456;8.844;2023-04-22T09:29:17;23.40;99.90
23305;DHT22;11821;51.456;8.844;2023-04-22T09:31:49;23.70;99.90
23305;DHT22;11821;51.456;8.844;2023-04-22T09:34:16;23.90;99.90
23305;DHT22;11821;51.456;8.844;2023-04-22T09:36:42;23.90;99.90
23305;DHT22;11821;51.456;8.844;2023-04-22T09:39:10;24.10;99.90
23305;DHT22;11821;51.456;8.844;2023-04-22T09:41:40;24.20;99.90
23305;DHT22;11821;51.456;8.844;2023-04-22T09:44:14;24.20;99.90
23305;DHT22;11821;51.456;8.844;2023-04-22T09:46:42;24.40;99.90
23305;DHT22;11821;51.456;8.844;2023-04-22T09:49:09;24.30;99.90
23305;DHT22;11821;51.456;8.844;2023-04-22T09:51:39;24.50;99.90
23305;DHT22;11821;51.456;8.844;2023-04-22T09:54:07;24.60;99.90
23305;DHT22;11821;51.456;8.844;2023-04-22T09:56:45;24.70;99.90
23305;DHT22;11821;51.456;8.844;2023-04-22T09:59:18;24.40;99.90
23305;DHT22;11821;51.456;8.844;2023-04-22T10:01:45;24.30;99.90
23305;DHT22;11821;51.456;8.844;2023-04-22T10:04:11;24.40;99.90
23305;DHT22;11821;51.456;8.844;2023-04-22T10:06:40;24.60;99.90
23305;DHT22;11821;51.456;8.844;2023-04-22T10:09:08;24.80;99.90
23305;DHT22;11821;51.456;8.844;2023-04-22T10:11:35;24.90;99.70
23305;DHT22;11821;51.456;8.844;2023-04-22T10:14:02;25.10;99.90
23305;DHT22;11821;51.456;8.844;2023-04-22T10:16:31;25.30;99.90
23305;DHT22;11821;51.456;8.844;2023-04-22T10:19:02;25.30;99.90
23305;DHT22;11821;51.456;8.844;2023-04-22T10:21:29;25.30;99.70
23305;DHT22;11821;51.456;8.844;2023-04-22T10:23:58;25.20;99.90
23305;DHT22;11821;51.456;8.844;2023-04-22T10:29:09;25.20;99.60
23305;DHT22;11821;51.456;8.844;2023-04-22T10:31:38;25.20;98.80
23305;DHT22;11821;51.456;8.844;2023-04-22T10:34:14;25.40;99.90
23305;DHT22;11821;51.456;8.844;2023-04-22T10:36:53;25.60;98.70
23305;DHT22;11821;51.456;8.844;2023-04-22T10:39:20;25.50;99.20
23305;DHT22;11821;51.456;8.844;2023-04-22T10:44:28;25.60;99.00
23305;DHT22;11821;51.456;8.844;2023-04-22T10:46:56;25.70;98.70
23305;DHT22;11821;51.456;8.844;2023-04-22T10:49:25;25.70;98.10
23305;DHT22;11821;51.456;8.844;2023-04-22T10:51:59;25.90;98.10
23305;DHT22;11821;51.456;8.844;2023-04-22T10:57:18;25.80;97.90
23305;DHT22;11821;51.456;8.844;2023-04-22T10:59:51;25.60;98.30
23305;DHT22;11821;51.456;8.844;2023-04-22T11:02:19;25.70;98.20
23305;DHT22;11821;51.456;8.844;2023-04-22T11:04:47;25.80;97.60
23305;DHT22;11821;51.456;8.844;2023-04-22T11:15:04;26.10;96.10
23305;DHT22;11821;51.456;8.844;2023-04-22T11:17:31;26.00;95.90
23305;DHT22;11821;51.456;8.844;2023-04-22T11:19:58;26.20;96.00
23305;DHT22;11821;51.456;8.844;2023-04-22T11:22:24;26.10;95.10
23305;DHT22;11821;51.456;8.844;2023-04-22T11:24:58;26.30;96.10
23305;DHT22;11821;51.456;8.844;2023-04-22T11:27:25;26.50;96.80
23305;DHT22;11821;51.456;8.844;2023-04-22T11:30:24;26.80;96.40
23305;DHT22;11821;51.456;8.844;2023-04-22T11:32:56;26.60;96.20
23305;DHT22;11821;51.456;8.844;2023-04-22T11:35:30;26.60;95.50
23305;DHT22;11821;51.456;8.844;2023-04-22T11:40:28;26.70;95.80
23305;DHT22;11821;51.456;8.844;2023-04-22T11:42:55;26.90;94.90
23305;DHT22;11821;51.456;8.844;2023-04-22T11:45:23;27.10;95.40
23305;DHT22;11821;51.456;8.844;2023-04-22T11:47:50;27.30;95.20
23305;DHT22;11821;51.456;8.844;2023-04-22T11:50:20;27.30;95.30
23305;DHT22;11821;51.456;8.844;2023-04-22T11:55:35;27.20;94.40
23305;DHT22;11821;51.456;8.844;2023-04-22T12:00:39;27.20;93.40
23305;DHT22;11821;51.456;8.844;2023-04-22T12:03:06;27.00;93.40
23305;DHT22;11821;51.456;8.844;2023-04-22T12:05:50;26.80;93.70
23305;DHT22;11821;51.456;8.844;2023-04-22T12:08:23;26.70;93.40
23305;DHT22;11821;51.456;8.844;2023-04-22T12:13:24;26.60;93.50
23305;DHT22;11821;51.456;8.844;2023-04-22T12:15:55;26.30;93.00
23305;DHT22;11821;51.456;8.844;2023-04-22T12:18:33;26.30;93.50
23305;DHT22;11821;51.456;8.844;2023-04-22T12:23:56;26.70;93.80
23305;DHT22;11821;51.456;8.844;2023-04-22T12:26:23;26.90;93.20
23305;DHT22;11821;51.456;8.844;2023-04-22T12:28:52;27.20;94.40
23305;DHT22;11821;51.456;8.844;2023-04-22T12:31:19;27.30;92.90
23305;DHT22;11821;51.456;8.844;2023-04-22T12:33:46;27.50;92.30
23305;DHT22;11821;51.456;8.844;2023-04-22T12:36:13;27.30;92.70
23305;DHT22;11821;51.456;8.844;2023-04-22T12:38:39;27.30;93.20
23305;DHT22;11821;51.456;8.844;2023-04-22T12:41:07;27.20;93.60
23305;DHT22;11821;51.456;8.844;2023-04-22T12:43:33;27.40;92.80
23305;DHT22;11821;51.456;8.844;2023-04-22T12:46:05;27.40;92.60
23305;DHT22;11821;51.456;8.844;2023-04-22T12:48:33;27.30;92.00
23305;DHT22;11821;51.456;8.844;2023-04-22T12:51:01;27.50;91.80
23305;DHT22;11821;51.456;8.844;2023-04-22T12:53:27;27.60;93.30
23305;DHT22;11821;51.456;8.844;2023-04-22T12:55:54;27.30;92.50
23305;DHT22;11821;51.456;8.844;2023-04-22T12:58:20;26.90;92.50
23305;DHT22;11821;51.456;8.844;2023-04-22T13:00:47;26.70;92.80
23305;DHT22;11821;51.456;8.844;2023-04-22T13:03:13;26.60;92.10
23305;DHT22;11821;51.456;8.844;2023-04-22T13:05:39;26.50;93.40
23305;DHT22;11821;51.456;8.844;2023-04-22T13:08:05;26.90;92.70
23305;DHT22;11821;51.456;8.844;2023-04-22T13:10:32;27.10;92.40
23305;DHT22;11821;51.456;8.844;2023-04-22T13:12:59;27.40;92.80
23305;DHT22;11821;51.456;8.844;2023-04-22T13:15:27;27.50;92.00
23305;DHT22;11821;51.456;8.844;2023-04-22T13:17:55;27.60;91.20
23305;DHT22;11821;51.456;8.844;2023-04-22T13:20:21;27.80;91.10
23305;DHT22;11821;51.456;8.844;2023-04-22T13:22:47;27.70;91.20
23305;DHT22;11821;51.456;8.844;2023-04-22T13:25:13;27.70;91.00
23305;DHT22;11821;51.456;8.844;2023-04-22T13:27:40;27.80;91.10
23305;DHT22;11821;51.456;8.844;2023-04-22T13:30:07;27.60;89.90
23305;DHT22;11821;51.456;8.844;2023-04-22T13:32:33;27.10;89.80
23305;DHT22;11821;51.456;8.844;2023-04-22T13:35:00;26.80;90.50
23305;DHT22;11821;51.456;8.844;2023-04-22T13:37:26;26.60;90.60
23305;DHT22;11821;51.456;8.844;2023-04-22T13:39:52;26.50;90.10
23305;DHT22;11821;51.456;8.844;2023-04-22T13:42:19;26.40;90.90
23305;DHT22;11821;51.456;8.844;2023-04-22T13:44:45;26.20;90.60
23305;DHT22;11821;51.456;8.844;2023-04-22T13:47:12;26.10;90.10
23305;DHT22;11821;51.456;8.844;2023-04-22T13:49:38;26.20;90.20
23305;DHT22;11821;51.456;8.844;2023-04-22T13:52:04;26.30;87.80
23305;DHT22;11821;51.456;8.844;2023-04-22T13:54:31;25.90;86.00
23305;DHT22;11821;51.456;8.844;2023-04-22T13:56:57;25.80;86.50
23305;DHT22;11821;51.456;8.844;2023-04-22T13:59:23;25.90;87.60
23305;DHT22;11821;51.456;8.844;2023-04-22T14:01:50;26.00;88.60
23305;DHT22;11821;51.456;8.844;2023-04-22T14:04:16;25.90;88.00
23305;DHT22;11821;51.456;8.844;2023-04-22T14:06:42;25.90;89.80
23305;DHT22;11821;51.456;8.844;2023-04-22T14:09:09;25.90;88.80
23305;DHT22;11821;51.456;8.844;2023-04-22T14:11:35;26.00;88.20
23305;DHT22;11821;51.456;8.844;2023-04-22T14:14:01;25.90;89.40
23305;DHT22;11821;51.456;8.844;2023-04-22T14:16:28;25.50;90.20
23305;DHT22;11821;51.456;8.844;2023-04-22T14:18:54;25.30;89.90
23305;DHT22;11821;51.456;8.844;2023-04-22T14:21:20;25.50;90.00
23305;DHT22;11821;51.456;8.844;2023-04-22T14:23:47;25.60;90.40
23305;DHT22;11821;51.456;8.844;2023-04-22T14:26:13;25.70;90.40
23305;DHT22;11821;51.456;8.844;2023-04-22T14:28:40;25.70;90.10
23305;DHT22;11821;51.456;8.844;2023-04-22T14:31:07;25.70;90.20
23305;DHT22;11821;51.456;8.844;2023-04-22T14:33:33;25.80;90.60
23305;DHT22;11821;51.456;8.844;2023-04-22T14:36:00;25.70;89.40
23305;DHT22;11821;51.456;8.844;2023-04-22T14:38:26;25.90;89.90
23305;DHT22;11821;51.456;8.844;2023-04-22T14:40:53;25.80;89.20
23305;DHT22;11821;51.456;8.844;2023-04-22T14:43:19;25.60;89.90
23305;DHT22;11821;51.456;8.844;2023-04-22T14:45:46;25.60;90.30
23305;DHT22;11821;51.456;8.844;2023-04-22T14:48:12;25.20;90.20
23305;DHT22;11821;51.456;8.844;2023-04-22T14:50:39;25.10;90.40
23305;DHT22;11821;51.456;8.844;2023-04-22T14:53:05;25.10;90.80
23305;DHT22;11821;51.456;8.844;2023-04-22T14:55:31;24.90;91.10
23305;DHT22;11821;51.456;8.844;2023-04-22T14:58:00;24.60;90.50
23305;DHT22;11821;51.456;8.844;2023-04-22T15:00:27;24.50;91.10
23305;DHT22;11821;51.456;8.844;2023-04-22T15:02:54;24.50;92.10
23305;DHT22;11821;51.456;8.844;2023-04-22T15:05:20;24.60;92.30
23305;DHT22;11821;51.456;8.844;2023-04-22T15:07:50;24.70;91.60
23305;DHT22;11821;51.456;8.844;2023-04-22T15:10:16;24.50;91.60
23305;DHT22;11821;51.456;8.844;2023-04-22T15:12:43;24.50;92.00
23305;DHT22;11821;51.456;8.844;2023-04-22T15:15:10;24.40;92.00
23305;DHT22;11821;51.456;8.844;2023-04-22T15:17:41;24.30;92.60
23305;DHT22;11821;51.456;8.844;2023-04-22T15:20:08;24.20;92.10
23305;DHT22;11821;51.456;8.844;2023-04-22T15:22:35;24.10;93.50
23305;DHT22;11821;51.456;8.844;2023-04-22T15:25:02;24.20;93.10
23305;DHT22;11821;51.456;8.844;2023-04-22T15:27:28;24.10;93.00
23305;DHT22;11821;51.456;8.844;2023-04-22T15:29:54;24.20;93.20
23305;DHT22;11821;51.456;8.844;2023-04-22T15:32:22;24.20;92.70
23305;DHT22;11821;51.456;8.844;2023-04-22T15:34:49;24.10;93.00
23305;DHT22;11821;51.456;8.844;2023-04-22T15:37:15;23.90;93.80
23305;DHT22;11821;51.456;8.844;2023-04-22T15:39:42;23.90;93.50
23305;DHT22;11821;51.456;8.844;2023-04-22T15:42:08;23.80;93.20
23305;DHT22;11821;51.456;8.844;2023-04-22T15:44:35;23.80;93.60
23305;DHT22;11821;51.456;8.844;2023-04-22T15:47:01;23.60;93.40
23305;DHT22;11821;51.456;8.844;2023-04-22T15:49:27;23.60;94.10
23305;DHT22;11821;51.456;8.844;2023-04-22T15:51:54;23.60;93.80
23305;DHT22;11821;51.456;8.844;2023-04-22T15:54:20;23.60;94.10
23305;DHT22;11821;51.456;8.844;2023-04-22T15:56:46;23.60;94.80
23305;DHT22;11821;51.456;8.844;2023-04-22T15:59:13;23.30;94.40
23305;DHT22;11821;51.456;8.844;2023-04-22T16:01:39;23.20;95.10
23305;DHT22;11821;51.456;8.844;2023-04-22T16:04:06;23.00;96.00
23305;DHT22;11821;51.456;8.844;2023-04-22T16:06:32;22.90;95.70
23305;DHT22;11821;51.456;8.844;2023-04-22T16:08:58;22.90;96.30
23305;DHT22;11821;51.456;8.844;2023-04-22T16:11:25;22.80;97.00
23305;DHT22;11821;51.456;8.844;2023-04-22T16:13:51;22.70;98.00
23305;DHT22;11821;51.456;8.844;2023-04-22T16:16:18;22.70;99.00
23305;DHT22;11821;51.456;8.844;2023-04-22T16:18:44;22.60;98.20
23305;DHT22;11821;51.456;8.844;2023-04-22T16:21:10;22.60;98.80
23305;DHT22;11821;51.456;8.844;2023-04-22T16:23:37;22.70;99.50
23305;DHT22;11821;51.456;8.844;2023-04-22T16:26:03;22.70;99.20
23305;DHT22;11821;51.456;8.844;2023-04-22T16:28:31;22.60;99.90
23305;DHT22;11821;51.456;8.844;2023-04-22T16:30:57;22.60;99.90
23305;DHT22;11821;51.456;8.844;2023-04-22T16:33:23;22.60;99.90
23305;DHT22;11821;51.456;8.844;2023-04-22T16:35:50;22.50;99.90
23305;DHT22;11821;51.456;8.844;2023-04-22T16:38:16;22.40;99.90
23305;DHT22;11821;51.456;8.844;2023-04-22T16:40:43;22.30;99.90
23305;DHT22;11821;51.456;8.844;2023-04-22T16:43:09;22.30;99.90
23305;DHT22;11821;51.456;8.844;2023-04-22T16:45:37;22.20;99.90
23305;DHT22;11821;51.456;8.844;2023-04-22T16:48:04;22.20;99.90
23305;DHT22;11821;51.456;8.844;2023-04-22T16:50:30;22.10;99.90
23305;DHT22;11821;51.456;8.844;2023-04-22T16:52:57;22.00;99.90
23305;DHT22;11821;51.456;8.844;2023-04-22T16:55:23;21.90;99.90
23305;DHT22;11821;51.456;8.844;2023-04-22T16:57:49;21.70;99.90
23305;DHT22;11821;51.456;8.844;2023-04-22T17:00:16;21.60;99.90
23305;DHT22;11821;51.456;8.844;2023-04-22T17:02:43;21.50;99.90
23305;DHT22;11821;51.456;8.844;2023-04-22T17:05:10;21.40;99.90
23305;DHT22;11821;51.456;8.844;2023-04-22T17:07:36;21.30;99.90
23305;DHT22;11821;51.456;8.844;2023-04-22T17:10:03;21.20;99.90
23305;DHT22;11821;51.456;8.844;2023-04-22T17:12:29;21.20;99.90
23305;DHT22;11821;51.456;8.844;2023-04-22T17:14:55;21.10;99.90
23305;DHT22;11821;51.456;8.844;2023-04-22T17:17:22;21.10;99.90
23305;DHT22;11821;51.456;8.844;2023-04-22T17:19:48;21.10;99.90
23305;DHT22;11821;51.456;8.844;2023-04-22T17:22:15;21.10;99.90
23305;DHT22;11821;51.456;8.844;2023-04-22T17:24:42;21.20;99.90
23305;DHT22;11821;51.456;8.844;2023-04-22T17:27:08;21.10;99.90
23305;DHT22;11821;51.456;8.844;2023-04-22T17:29:34;21.20;99.90
23305;DHT22;11821;51.456;8.844;2023-04-22T17:32:01;21.20;99.90
23305;DHT22;11821;51.456;8.844;2023-04-22T17:34:27;21.30;99.90
23305;DHT22;11821;51.456;8.844;2023-04-22T17:36:54;21.10;99.90
23305;DHT22;11821;51.456;8.844;2023-04-22T17:39:20;21.20;99.90
23305;DHT22;11821;51.456;8.844;2023-04-22T17:41:47;21.20;99.90
23305;DHT22;11821;51.456;8.844;2023-04-22T17:44:13;21.10;99.90
23305;DHT22;11821;51.456;8.844;2023-04-22T17:46:39;21.10;99.90
23305;DHT22;11821;51.456;8.844;2023-04-22T17:49:06;21.10;99.90
23305;DHT22;11821;51.456;8.844;2023-04-22T17:51:32;21.10;99.90
23305;DHT22;11821;51.456;8.844;2023-04-22T17:53:59;21.00;99.90
23305;DHT22;11821;51.456;8.844;2023-04-22T17:56:26;20.90;99.90
23305;DHT22;11821;51.456;8.844;2023-04-22T17:58:52;20.90;99.90
23305;DHT22;11821;51.456;8.844;2023-04-22T18:01:19;20.90;99.90
23305;DHT22;11821;51.456;8.844;2023-04-22T18:03:45;20.80;99.90
23305;DHT22;11821;51.456;8.844;2023-04-22T18:06:11;20.80;99.90
23305;DHT22;11821;51.456;8.844;2023-04-22T18:08:38;20.60;99.90
23305;DHT22;11821;51.456;8.844;2023-04-22T18:11:04;20.60;99.90
23305;DHT22;11821;51.456;8.844;2023-04-22T18:13:31;20.50;99.90
23305;DHT22;11821;51.456;8.844;2023-04-22T18:15:57;20.50;99.90
23305;DHT22;11821;51.456;8.844;2023-04-22T18:18:24;20.40;99.90
23305;DHT22;11821;51.456;8.844;2023-04-22T18:20:51;20.30;99.90
23305;DHT22;11821;51.456;8.844;2023-04-22T18:23:17;20.30;99.90
23305;DHT22;11821;51.456;8.844;2023-04-22T18:25:43;20.30;99.90
23305;DHT22;11821;51.456;8.844;2023-04-22T18:28:11;20.10;99.90
23305;DHT22;11821;51.456;8.844;2023-04-22T18:30:38;20.20;99.90
23305;DHT22;11821;51.456;8.844;2023-04-22T18:33:04;20.10;99.90
23305;DHT22;11821;51.456;8.844;2023-04-22T18:35:31;20.10;99.90
23305;DHT22;11821;51.456;8.844;2023-04-22T18:37:58;20.00;99.90
23305;DHT22;11821;51.456;8.844;2023-04-22T18:40:24;20.00;99.90
23305;DHT22;11821;51.456;8.844;2023-04-22T18:42:50;19.90;99.90
23305;DHT22;11821;51.456;8.844;2023-04-22T18:45:16;19.90;99.90
23305;DHT22;11821;51.456;8.844;2023-04-22T18:47:43;19.80;99.90
23305;DHT22;11821;51.456;8.844;2023-04-22T18:50:10;19.90;99.90
23305;DHT22;11821;51.456;8.844;2023-04-22T18:52:37;19.80;99.90
23305;DHT22;11821;51.456;8.844;2023-04-22T18:55:03;19.80;99.90
23305;DHT22;11821;51.456;8.844;2023-04-22T18:57:30;19.80;99.90
23305;DHT22;11821;51.456;8.844;2023-04-22T18:59:56;19.80;99.90
23305;DHT22;11821;51.456;8.844;2023-04-22T19:02:23;19.60;99.90
23305;DHT22;11821;51.456;8.844;2023-04-22T19:04:50;19.60;99.90
23305;DHT22;11821;51.456;8.844;2023-04-22T19:07:19;19.60;99.90
23305;DHT22;11821;51.456;8.844;2023-04-22T19:09:45;19.60;99.90
23305;DHT22;11821;51.456;8.844;2023-04-22T19:12:11;19.50;99.90
23305;DHT22;11821;51.456;8.844;2023-04-22T19:14:44;19.50;99.90
23305;DHT22;11821;51.456;8.844;2023-04-22T19:17:12;19.60;99.90
23305;DHT22;11821;51.456;8.844;2023-04-22T19:19:38;19.60;99.90
23305;DHT22;11821;51.456;8.844;2023-04-22T19:22:04;19.50;99.90
23305;DHT22;11821;51.456;8.844;2023-04-22T19:24:31;19.50;99.90
23305;DHT22;11821;51.456;8.844;2023-04-22T19:27:00;19.50;99.90
23305;DHT22;11821;51.456;8.844;2023-04-22T19:29:32;19.50;99.90
23305;DHT22;11821;51.456;8.844;2023-04-22T19:31:58;19.50;99.90
23305;DHT22;11821;51.456;8.844;2023-04-22T19:34:25;19.60;99.90
23305;DHT22;11821;51.456;8.844;2023-04-22T19:36:52;19.50;99.90
23305;DHT22;11821;51.456;8.844;2023-04-22T19:39:19;19.50;99.90
23305;DHT22;11821;51.456;8.844;2023-04-22T19:41:46;19.50;99.90
23305;DHT22;11821;51.456;8.844;2023-04-22T19:44:12;19.40;99.90
23305;DHT22;11821;51.456;8.844;2023-04-22T19:46:38;19.40;99.90
23305;DHT22;11821;51.456;8.844;2023-04-22T19:49:05;19.40;99.90
23305;DHT22;11821;51.456;8.844;2023-04-22T19:51:32;19.30;99.90
23305;DHT22;11821;51.456;8.844;2023-04-22T19:54:00;19.20;99.90
23305;DHT22;11821;51.456;8.844;2023-04-22T19:56:27;19.20;99.90
23305;DHT22;11821;51.456;8.844;2023-04-22T19:58:54;19.20;99.90
23305;DHT22;11821;51.456;8.844;2023-04-22T20:01:20;19.20;99.90
23305;DHT22;11821;51.456;8.844;2023-04-22T20:03:47;19.20;99.90
23305;DHT22;11821;51.456;8.844;2023-04-22T20:06:15;19.10;99.90
23305;DHT22;11821;51.456;8.844;2023-04-22T20:08:41;19.00;99.90
23305;DHT22;11821;51.456;8.844;2023-04-22T20:11:08;19.00;99.90
23305;DHT22;11821;51.456;8.844;2023-04-22T20:13:36;18.90;99.90
23305;DHT22;11821;51.456;8.844;2023-04-22T20:16:05;18.90;99.90
23305;DHT22;11821;51.456;8.844;2023-04-22T20:18:31;18.90;99.90
23305;DHT22;11821;51.456;8.844;2023-04-22T20:20:58;18.90;99.90
23305;DHT22;11821;51.456;8.844;2023-04-22T20:23:26;18.90;99.90
23305;DHT22;11821;51.456;8.844;2023-04-22T20:25:53;18.80;99.90
23305;DHT22;11821;51.456;8.844;2023-04-22T20:28:45;18.80;99.90
23305;DHT22;11821;51.456;8.844;2023-04-22T20:31:13;18.80;99.90
23305;DHT22;11821;51.456;8.844;2023-04-22T20:33:39;18.70;99.90
23305;DHT22;11821;51.456;8.844;2023-04-22T20:36:06;18.60;99.90
23305;DHT22;11821;51.456;8.844;2023-04-22T20:38:36;18.60;99.90
23305;DHT22;11821;51.456;8.844;2023-04-22T20:41:04;18.60;99.90
23305;DHT22;11821;51.456;8.844;2023-04-22T20:43:31;18.60;99.90
23305;DHT22;11821;51.456;8.844;2023-04-22T20:45:58;18.50;99.90
23305;DHT22;11821;51.456;8.844;2023-04-22T20:48:25;18.50;99.90
23305;DHT22;11821;51.456;8.844;2023-04-22T20:50:51;18.40;99.90
23305;DHT22;11821;51.456;8.844;2023-04-22T20:53:17;18.40;99.90
23305;DHT22;11821;51.456;8.844;2023-04-22T20:55:44;18.40;99.90
23305;DHT22;11821;51.456;8.844;2023-04-22T20:58:11;18.40;99.90
23305;DHT22;11821;51.456;8.844;2023-04-22T21:00:37;18.40;99.90
23305;DHT22;11821;51.456;8.844;2023-04-22T21:03:08;18.40;99.90
23305;DHT22;11821;51.456;8.844;2023-04-22T21:05:35;18.30;99.90
23305;DHT22;11821;51.456;8.844;2023-04-22T21:10:45;18.30;99.90
23305;DHT22;11821;51.456;8.844;2023-04-22T21:13:11;18.20;99.90
23305;DHT22;11821;51.456;8.844;2023-04-22T21:15:40;18.30;99.90
23305;DHT22;11821;51.456;8.844;2023-04-22T21:18:08;18.20;99.90
23305;DHT22;11821;51.456;8.844;2023-04-22T21:20:44;18.30;99.90
23305;DHT22;11821;51.456;8.844;2023-04-22T21:23:12;18.30;99.90
23305;DHT22;11821;51.456;8.844;2023-04-22T21:25:38;18.20;99.90
23305;DHT22;11821;51.456;8.844;2023-04-22T21:28:05;18.20;99.90
23305;DHT22;11821;51.456;8.844;2023-04-22T21:30:32;18.20;99.90
23305;DHT22;11821;51.456;8.844;2023-04-22T21:32:58;18.10;99.90
23305;DHT22;11821;51.456;8.844;2023-04-22T21:35:25;18.00;99.90
23305;DHT22;11821;51.456;8.844;2023-04-22T21:37:51;18.00;99.90
23305;DHT22;11821;51.456;8.844;2023-04-22T21:40:19;18.00;99.90
23305;DHT22;11821;51.456;8.844;2023-04-22T21:42:45;18.00;99.90
23305;DHT22;11821;51.456;8.844;2023-04-22T21:45:11;17.90;99.90
23305;DHT22;11821;51.456;8.844;2023-04-22T21:47:38;17.80;99.90
23305;DHT22;11821;51.456;8.844;2023-04-22T21:50:04;17.70;99.90
23305;DHT22;11821;51.456;8.844;2023-04-22T21:52:31;17.80;99.90
23305;DHT22;11821;51.456;8.844;2023-04-22T21:54:57;17.70;99.90
23305;DHT22;11821;51.456;8.844;2023-04-22T21:57:24;17.80;99.90
23305;DHT22;11821;51.456;8.844;2023-04-22T21:59:50;17.80;99.90
23305;DHT22;11821;51.456;8.844;2023-04-22T22:02:17;17.80;99.90
23305;DHT22;11821;51.456;8.844;2023-04-22T22:04:43;17.90;99.90
23305;DHT22;11821;51.456;8.844;2023-04-22T22:07:09;18.00;99.90
23305;DHT22;11821;51.456;8.844;2023-04-22T22:09:37;18.00;99.90
23305;DHT22;11821;51.456;8.844;2023-04-22T22:12:03;18.10;99.90
23305;DHT22;11821;51.456;8.844;2023-04-22T22:14:30;18.10;99.90
23305;DHT22;11821;51.456;8.844;2023-04-22T22:16:56;18.00;99.90
23305;DHT22;11821;51.456;8.844;2023-04-22T22:19:22;18.00;99.90
23305;DHT22;11821;51.456;8.844;2023-04-22T22:21:52;18.10;99.90
23305;DHT22;11821;51.456;8.844;2023-04-22T22:24:18;18.10;99.90
23305;DHT22;11821;51.456;8.844;2023-04-22T22:26:45;18.10;99.90
23305;DHT22;11821;51.456;8.844;2023-04-22T22:29:11;18.00;99.90
23305;DHT22;11821;51.456;8.844;2023-04-22T22:31:44;17.90;99.90
23305;DHT22;11821;51.456;8.844;2023-04-22T22:34:10;17.80;99.90
23305;DHT22;11821;51.456;8.844;2023-04-22T22:36:36;17.80;99.90
23305;DHT22;11821;51.456;8.844;2023-04-22T22:39:03;17.70;99.90
23305;DHT22;11821;51.456;8.844;2023-04-22T22:41:30;17.80;99.90
23305;DHT22;11821;51.456;8.844;2023-04-22T22:43:57;17.80;99.90
23305;DHT22;11821;51.456;8.844;2023-04-22T22:46:23;17.80;99.90
23305;DHT22;11821;51.456;8.844;2023-04-22T22:48:49;17.60;99.90
23305;DHT22;11821;51.456;8.844;2023-04-22T22:51:16;17.50;99.90
23305;DHT22;11821;51.456;8.844;2023-04-22T22:53:42;17.50;99.90
23305;DHT22;11821;51.456;8.844;2023-04-22T22:56:08;17.50;99.90
23305;DHT22;11821;51.456;8.844;2023-04-22T22:58:35;17.50;99.90
23305;DHT22;11821;51.456;8.844;2023-04-22T23:01:02;17.50;99.90
23305;DHT22;11821;51.456;8.844;2023-04-22T23:03:30;17.60;99.90
23305;DHT22;11821;51.456;8.844;2023-04-22T23:05:57;17.60;99.90
23305;DHT22;11821;51.456;8.844;2023-04-22T23:08:23;17.60;99.90
23305;DHT22;11821;51.456;8.844;2023-04-22T23:10:49;17.60;99.90
23305;DHT22;11821;51.456;8.844;2023-04-22T23:13:16;17.60;99.90
23305;DHT22;11821;51.456;8.844;2023-04-22T23:15:42;17.60;99.90
23305;DHT22;11821;51.456;8.844;2023-04-22T23:18:08;17.60;99.90
23305;DHT22;11821;51.456;8.844;2023-04-22T23:20:36;17.40;99.90
23305;DHT22;11821;51.456;8.844;2023-04-22T23:23:02;17.40;99.90
23305;DHT22;11821;51.456;8.844;2023-04-22T23:25:30;17.40;99.90
23305;DHT22;11821;51.456;8.844;2023-04-22T23:27:56;17.30;99.90